createdAt,value
2022-08-17T00:00:42.844Z,4.88
2022-08-17T00:03:10.023Z,4.75
2022-08-17T00:05:43.688Z,5.13
2022-08-17T00:08:12.879Z,4.70
2022-08-17T00:10:42.313Z,5.70
2022-08-17T00:13:14.865Z,5.78
2022-08-17T00:15:43.961Z,4.70
2022-08-17T00:19:01.245Z,4.80
2022-08-17T00:21:04.008Z,4.75
2022-08-17T00:23:46.210Z,4.65
2022-08-17T00:26:43.427Z,5.13
2022-08-17T00:29:08.249Z,4.90
2022-08-17T00:31:37.408Z,4.80
2022-08-17T00:34:08.697Z,4.65
2022-08-17T00:36:38.911Z,5.28
2022-08-17T00:39:07.227Z,5.05
2022-08-17T00:41:35.829Z,4.93
2022-08-17T00:44:06.754Z,4.80
2022-08-17T00:46:40.376Z,4.78
2022-08-17T00:49:09.972Z,4.65
2022-08-17T00:51:44.698Z,5.93
2022-08-17T00:54:16.818Z,4.63
2022-08-17T00:56:48.623Z,5.72
2022-08-17T00:59:20.288Z,4.80
2022-08-17T01:01:50.859Z,5.15
2022-08-17T01:04:21.931Z,6.00
2022-08-17T01:06:52.539Z,5.10
2022-08-17T01:09:21.846Z,5.47
2022-08-17T01:11:52.167Z,4.35
2022-08-17T01:14:21.446Z,4.80
2022-08-17T01:16:51.518Z,5.20
2022-08-17T01:19:23.233Z,5.00
2022-08-17T01:22:02.257Z,5.53
2022-08-17T01:24:33.796Z,4.90
2022-08-17T01:27:10.188Z,5.05
2022-08-17T01:29:42.099Z,5.97
2022-08-17T01:32:10.961Z,5.80
2022-08-17T01:34:42.604Z,4.80
2022-08-17T01:37:12.588Z,4.90
2022-08-17T01:39:48.553Z,5.82
2022-08-17T01:42:23.411Z,5.05
2022-08-17T01:44:56.795Z,5.22
2022-08-17T01:47:25.195Z,4.97
2022-08-17T01:49:53.532Z,6.15
2022-08-17T01:52:23.775Z,4.90
2022-08-17T01:54:54.402Z,4.57
2022-08-17T01:57:22.778Z,5.35
2022-08-17T01:59:51.131Z,4.97
2022-08-17T02:02:30.565Z,5.22
2022-08-17T02:05:00.552Z,4.78
2022-08-17T02:07:29.046Z,5.10
2022-08-17T02:09:58.808Z,6.63
2022-08-17T02:12:39.265Z,5.47
2022-08-17T02:15:16.502Z,6.57
2022-08-17T02:17:45.270Z,4.57
2022-08-17T02:20:13.905Z,6.18
2022-08-17T02:22:44.525Z,4.55
2022-08-17T02:25:17.550Z,5.30
2022-08-17T02:27:45.909Z,4.72
2022-08-17T02:31:01.866Z,6.53
2022-08-17T02:33:06.363Z,4.82
2022-08-17T02:35:38.198Z,5.00
2022-08-17T02:38:07.828Z,7.25
2022-08-17T02:40:40.532Z,5.18
2022-08-17T02:43:09.505Z,5.13
2022-08-17T02:45:38.163Z,4.63
2022-08-17T02:48:07.198Z,5.57
2022-08-17T02:50:35.698Z,4.07
2022-08-17T02:53:05.309Z,5.00
2022-08-17T02:55:36.082Z,4.80
2022-08-17T02:58:05.999Z,4.78
2022-08-17T03:00:37.778Z,4.28
2022-08-17T03:03:07.045Z,5.43
2022-08-17T03:05:40.940Z,4.82
2022-08-17T03:08:11.740Z,4.50
2022-08-17T03:10:42.217Z,4.57
2022-08-17T03:13:13.033Z,4.57
2022-08-17T03:15:45.079Z,4.90
2022-08-17T03:18:24.987Z,4.80
2022-08-17T03:20:55.777Z,4.70
2022-08-17T03:23:25.396Z,5.00
2022-08-17T03:25:55.086Z,5.05
2022-08-17T03:28:26.336Z,4.07
2022-08-17T03:30:54.731Z,5.45
2022-08-17T03:33:23.398Z,5.00
2022-08-17T03:35:52.393Z,4.43
2022-08-17T03:38:21.765Z,4.60
2022-08-17T03:40:57.030Z,4.93
2022-08-17T03:43:31.131Z,4.20
2022-08-17T03:46:28.453Z,4.40
2022-08-17T03:49:21.391Z,4.60
2022-08-17T03:52:06.978Z,4.22
2022-08-17T03:54:52.577Z,5.30
2022-08-17T03:57:21.098Z,5.20
2022-08-17T03:59:51.371Z,4.60
2022-08-17T04:02:25.750Z,5.30
2022-08-17T04:07:24.922Z,4.00
2022-08-17T04:09:57.830Z,4.25
2022-08-17T04:12:30.497Z,4.00
2022-08-17T04:15:00.426Z,3.95
2022-08-17T04:17:30.170Z,5.60
2022-08-17T04:19:58.546Z,4.32
2022-08-17T04:22:30.803Z,4.50
2022-08-17T04:25:05.746Z,4.25
2022-08-17T04:27:34.129Z,4.00
2022-08-17T04:30:05.891Z,5.10
2022-08-17T04:33:03.713Z,4.30
2022-08-17T04:35:25.352Z,4.43
2022-08-17T04:37:53.862Z,4.18
2022-08-17T04:40:41.504Z,4.13
2022-08-17T04:43:12.639Z,5.25
2022-08-17T04:45:55.410Z,4.13
2022-08-17T04:48:29.809Z,5.72
2022-08-17T04:51:09.902Z,4.50
2022-08-17T04:53:40.001Z,5.07
2022-08-17T04:56:16.015Z,4.50
2022-08-17T04:58:49.787Z,4.50
2022-08-17T05:01:23.110Z,4.10
2022-08-17T05:03:52.135Z,5.07
2022-08-17T05:06:20.879Z,4.78
2022-08-17T05:08:49.534Z,4.72
2022-08-17T05:11:18.280Z,4.35
2022-08-17T05:13:49.951Z,4.25
2022-08-17T05:16:21.099Z,3.72
2022-08-17T05:18:49.499Z,4.13
2022-08-17T05:21:18.613Z,4.22
2022-08-17T05:23:50.304Z,4.82
2022-08-17T05:26:26.705Z,4.43
2022-08-17T05:29:02.819Z,4.13
2022-08-17T05:31:32.732Z,4.13
2022-08-17T05:34:01.159Z,4.22
2022-08-17T05:36:43.306Z,4.05
2022-08-17T05:39:17.059Z,4.22
2022-08-17T05:41:48.163Z,4.30
2022-08-17T05:44:17.699Z,5.05
2022-08-17T05:46:52.035Z,4.40
2022-08-17T05:52:14.032Z,3.45
2022-08-17T05:55:00.559Z,4.22
2022-08-17T05:57:47.549Z,4.45
2022-08-17T06:00:30.763Z,4.40
2022-08-17T06:03:26.052Z,3.85
2022-08-17T06:06:25.230Z,4.30
2022-08-17T06:11:44.121Z,4.63
2022-08-17T06:14:29.609Z,3.70
2022-08-17T06:17:04.665Z,5.07
2022-08-17T06:19:41.002Z,3.65
2022-08-17T06:22:13.930Z,4.68
2022-08-17T06:24:50.023Z,6.28
2022-08-17T06:27:26.454Z,5.55
2022-08-17T06:30:04.056Z,5.80
2022-08-17T06:32:32.465Z,5.70
2022-08-17T06:35:04.454Z,7.68
2022-08-17T06:37:51.549Z,5.22
2022-08-17T06:40:35.746Z,7.90
2022-08-17T06:43:17.274Z,5.95
2022-08-17T06:45:50.101Z,4.95
2022-08-17T06:48:25.530Z,5.95
2022-08-17T06:51:01.140Z,4.93
2022-08-17T06:53:35.326Z,5.93
2022-08-17T06:56:07.785Z,5.15
2022-08-17T06:58:38.885Z,5.63
2022-08-17T07:01:16.120Z,6.55
2022-08-17T07:03:54.562Z,5.22
2022-08-17T07:06:29.128Z,5.47
2022-08-17T07:09:03.696Z,5.45
2022-08-17T07:11:38.827Z,4.60
2022-08-17T07:14:22.318Z,4.80
2022-08-17T07:16:53.546Z,6.63
2022-08-17T07:19:26.018Z,5.95
2022-08-17T07:22:04.627Z,5.70
2022-08-17T07:24:37.221Z,5.00
2022-08-17T07:27:13.168Z,8.07
2022-08-17T07:29:49.408Z,8.80
2022-08-17T07:32:21.338Z,7.15
2022-08-17T07:35:22.996Z,8.55
2022-08-17T07:38:24.165Z,8.63
2022-08-17T07:41:03.722Z,8.18
2022-08-17T07:43:35.174Z,10.75
2022-08-17T07:46:33.964Z,10.38
2022-08-17T07:49:20.736Z,7.93
2022-08-17T07:52:00.470Z,7.60
2022-08-17T07:54:50.101Z,8.73
2022-08-17T07:57:36.444Z,8.65
2022-08-17T08:00:19.319Z,9.63
2022-08-17T08:03:15.526Z,6.72
2022-08-17T08:05:57.337Z,8.85
2022-08-17T08:08:35.675Z,8.65
2022-08-17T08:11:09.259Z,8.48
2022-08-17T08:13:42.796Z,8.75
2022-08-17T08:16:22.572Z,8.43
2022-08-17T08:18:56.843Z,8.45
2022-08-17T08:21:44.816Z,9.45
2022-08-17T08:24:41.715Z,8.05
2022-08-17T08:27:22.892Z,9.18
2022-08-17T08:29:58.066Z,9.43
2022-08-17T08:32:40.467Z,7.18
2022-08-17T08:35:13.728Z,7.72
2022-08-17T08:37:52.885Z,8.93
2022-08-17T08:40:44.013Z,9.65
2022-08-17T08:43:26.659Z,8.75
2022-08-17T08:46:02.469Z,8.48
2022-08-17T08:48:57.957Z,9.57
2022-08-17T08:51:39.670Z,7.35
2022-08-17T08:54:27.000Z,8.68
2022-08-17T08:57:24.183Z,9.23
2022-08-17T09:00:08.710Z,10.75
2022-08-17T09:03:03.866Z,8.57
2022-08-17T09:05:44.642Z,6.97
2022-08-17T09:11:00.790Z,8.45
2022-08-17T09:13:37.638Z,8.38
2022-08-17T09:16:15.217Z,9.23
2022-08-17T09:19:00.554Z,7.30
2022-08-17T09:21:48.392Z,7.95
2022-08-17T09:26:54.924Z,7.85
2022-08-17T09:29:26.372Z,7.78
2022-08-17T09:31:59.633Z,7.53
2022-08-17T09:34:35.987Z,10.57
2022-08-17T09:37:16.333Z,10.27
2022-08-17T09:40:07.386Z,9.68
2022-08-17T09:42:43.692Z,8.82
2022-08-17T09:45:27.631Z,9.48
2022-08-17T09:48:03.192Z,9.20
2022-08-17T09:51:03.409Z,10.68
2022-08-17T09:53:26.092Z,9.02
2022-08-17T09:56:09.993Z,13.65
2022-08-17T09:58:49.774Z,11.55
2022-08-17T10:01:29.100Z,11.82
2022-08-17T10:04:11.746Z,10.32
2022-08-17T10:06:50.302Z,10.60
2022-08-17T10:09:29.320Z,9.68
2022-08-17T10:12:19.941Z,9.43
2022-08-17T10:14:57.543Z,9.52
2022-08-17T10:17:34.031Z,8.60
2022-08-17T10:20:12.014Z,9.27
2022-08-17T10:23:04.472Z,10.18
2022-08-17T10:25:55.666Z,10.50
2022-08-17T10:28:30.082Z,8.88
2022-08-17T10:31:33.606Z,9.27
2022-08-17T10:34:19.947Z,10.35
2022-08-17T10:36:56.399Z,12.98
2022-08-17T10:39:35.940Z,11.57
2022-08-17T10:42:30.764Z,12.55
2022-08-17T10:45:07.780Z,13.25
2022-08-17T10:48:04.677Z,16.65
2022-08-17T10:50:59.754Z,11.15
2022-08-17T10:53:52.537Z,11.65
2022-08-17T10:56:24.471Z,11.57
2022-08-17T10:58:54.964Z,12.70
2022-08-17T11:01:58.921Z,10.05
2022-08-17T11:04:45.854Z,12.05
2022-08-17T11:07:25.400Z,11.55
2022-08-17T11:10:25.361Z,9.93
2022-08-17T11:13:01.876Z,12.57
2022-08-17T11:15:49.513Z,10.23
2022-08-17T11:18:40.974Z,9.15
2022-08-17T11:21:39.233Z,11.00
2022-08-17T11:24:30.526Z,11.07
2022-08-17T11:27:12.390Z,12.30
2022-08-17T11:29:53.676Z,13.80
2022-08-17T11:32:37.196Z,11.85
2022-08-17T11:35:30.267Z,14.52
2022-08-17T11:38:19.980Z,13.35
2022-08-17T11:41:18.406Z,13.15
2022-08-17T11:44:11.036Z,17.67
2022-08-17T11:47:17.910Z,15.55
2022-08-17T11:50:17.518Z,20.05
2022-08-17T11:52:47.950Z,16.30
2022-08-17T11:55:50.637Z,16.75
2022-08-17T11:58:37.377Z,17.65
2022-08-17T12:01:08.581Z,15.23
2022-08-17T12:03:55.301Z,12.63
2022-08-17T12:06:33.090Z,15.70
2022-08-17T12:09:08.186Z,15.07
2022-08-17T12:12:01.580Z,13.27
2022-08-17T12:15:08.129Z,19.05
2022-08-17T12:17:41.442Z,16.13
2022-08-17T12:20:16.244Z,12.88
2022-08-17T12:22:54.746Z,17.52
2022-08-17T12:25:35.897Z,15.85
2022-08-17T12:28:07.735Z,15.43
2022-08-17T12:30:37.403Z,13.32
2022-08-17T12:33:13.332Z,16.83
2022-08-17T12:35:59.661Z,21.20
2022-08-17T12:38:33.180Z,15.27
2022-08-17T12:41:24.358Z,14.80
2022-08-17T12:44:01.993Z,20.90
2022-08-17T12:46:34.776Z,16.05
2022-08-17T12:49:23.847Z,15.93
2022-08-17T12:51:58.129Z,22.73
2022-08-17T12:54:34.485Z,24.40
2022-08-17T12:57:07.516Z,22.40
2022-08-17T12:59:42.275Z,24.00
2022-08-17T13:02:21.488Z,20.42
2022-08-17T13:04:51.371Z,24.95
2022-08-17T13:07:35.652Z,23.05
2022-08-17T13:10:05.656Z,15.73
2022-08-17T13:12:36.452Z,23.58
2022-08-17T13:15:05.568Z,17.83
2022-08-17T13:17:36.510Z,21.77
2022-08-17T13:20:15.692Z,21.63
2022-08-17T13:22:45.249Z,25.48
2022-08-17T13:25:17.775Z,23.15
2022-08-17T13:27:47.632Z,20.25
2022-08-17T13:30:23.767Z,16.67
2022-08-17T13:32:55.004Z,17.55
2022-08-17T13:35:50.136Z,14.73
2022-08-17T13:38:40.420Z,19.30
2022-08-17T13:41:08.837Z,16.92
2022-08-17T13:43:45.578Z,27.95
2022-08-17T13:46:21.148Z,25.63
2022-08-17T13:49:00.282Z,14.65
2022-08-17T13:51:36.581Z,21.08
2022-08-17T13:54:24.317Z,15.70
2022-08-17T13:57:00.336Z,16.83
2022-08-17T13:59:52.985Z,16.55
2022-08-17T14:02:25.853Z,13.90
2022-08-17T14:05:00.495Z,17.15
2022-08-17T14:07:35.813Z,15.23
2022-08-17T14:10:12.563Z,14.65
2022-08-17T14:12:42.952Z,20.75
2022-08-17T14:15:12.822Z,22.05
2022-08-17T14:17:41.207Z,21.67
2022-08-17T14:20:12.057Z,25.77
2022-08-17T14:22:45.313Z,23.60
2022-08-17T14:25:16.385Z,18.27
2022-08-17T14:27:52.765Z,30.00
2022-08-17T14:30:24.943Z,23.58
2022-08-17T14:32:54.565Z,34.33
2022-08-17T14:35:27.829Z,32.28
2022-08-17T14:37:58.063Z,27.33
2022-08-17T14:40:29.834Z,24.95
2022-08-17T14:42:58.398Z,21.55
2022-08-17T14:45:32.261Z,31.27
2022-08-17T14:48:05.566Z,20.73
2022-08-17T14:50:35.470Z,22.48
2022-08-17T14:53:06.998Z,22.40
2022-08-17T14:55:41.837Z,25.17
2022-08-17T14:58:13.190Z,25.05
2022-08-17T15:00:43.571Z,19.30
2022-08-17T15:03:12.508Z,17.30
2022-08-17T15:05:41.061Z,17.05
2022-08-17T15:08:11.008Z,19.10
2022-08-17T15:10:41.437Z,22.33
2022-08-17T15:13:18.027Z,21.92
2022-08-17T15:15:46.784Z,18.08
2022-08-17T15:18:15.196Z,16.58
2022-08-17T15:20:44.707Z,26.02
2022-08-17T15:23:15.806Z,15.45
2022-08-17T15:25:44.733Z,21.88
2022-08-17T15:28:13.595Z,15.55
2022-08-17T15:30:43.080Z,22.25
2022-08-17T15:33:15.406Z,17.17
2022-08-17T15:35:50.593Z,23.23
2022-08-17T15:38:20.452Z,13.50
2022-08-17T15:40:52.215Z,18.67
2022-08-17T15:43:27.384Z,15.55
2022-08-17T15:46:00.450Z,14.95
2022-08-17T15:48:41.291Z,16.15
2022-08-17T15:51:12.060Z,14.40
2022-08-17T15:53:46.546Z,16.13
2022-08-17T15:56:16.276Z,17.75
2022-08-17T15:58:46.626Z,15.80
2022-08-17T16:01:42.263Z,18.27
2022-08-17T16:04:23.576Z,15.98
2022-08-17T16:06:54.220Z,18.00
2022-08-17T16:09:23.954Z,14.30
2022-08-17T16:11:55.936Z,15.82
2022-08-17T16:14:32.316Z,15.90
2022-08-17T16:17:03.379Z,15.43
2022-08-17T16:19:32.437Z,14.70
2022-08-17T16:22:01.304Z,15.40
2022-08-17T16:24:31.648Z,17.33
2022-08-17T16:27:00.135Z,16.25
2022-08-17T16:29:28.793Z,20.52
2022-08-17T16:31:58.123Z,22.27
2022-08-17T16:34:26.581Z,20.20
2022-08-17T16:36:56.448Z,18.25
2022-08-17T16:39:27.133Z,16.88
2022-08-17T16:41:57.399Z,19.55
2022-08-17T16:44:31.659Z,18.58
2022-08-17T16:47:01.271Z,17.65
2022-08-17T16:49:37.060Z,18.95
2022-08-17T16:52:11.057Z,19.98
2022-08-17T16:54:43.282Z,18.75
2022-08-17T16:57:14.520Z,26.63
2022-08-17T16:59:47.787Z,18.00
2022-08-17T17:02:18.014Z,20.63
2022-08-17T17:04:51.576Z,17.95
2022-08-17T17:07:35.284Z,20.33
2022-08-17T17:10:08.678Z,14.48
2022-08-17T17:13:01.377Z,16.77
2022-08-17T17:15:42.858Z,14.13
2022-08-17T17:18:15.193Z,12.95
2022-08-17T17:20:50.678Z,11.95
2022-08-17T17:23:37.455Z,11.88
2022-08-17T17:26:24.551Z,10.63
2022-08-17T17:29:11.802Z,12.15
2022-08-17T17:31:48.568Z,9.68
2022-08-17T17:34:18.406Z,10.27
2022-08-17T17:36:51.456Z,11.43
2022-08-17T17:39:25.692Z,10.43
2022-08-17T17:41:58.156Z,11.48
2022-08-17T17:44:31.435Z,10.15
2022-08-17T17:47:02.339Z,10.53
2022-08-17T17:49:36.197Z,11.43
2022-08-17T17:52:18.410Z,11.38
2022-08-17T17:55:13.032Z,12.32
2022-08-17T17:57:55.695Z,10.60
2022-08-17T18:00:31.646Z,13.15
2022-08-17T18:03:15.109Z,11.27
2022-08-17T18:06:10.379Z,12.20
2022-08-17T18:08:55.864Z,11.32
2022-08-17T18:11:50.752Z,10.43
2022-08-17T18:14:30.563Z,11.10
2022-08-17T18:17:02.119Z,10.15
2022-08-17T18:19:32.832Z,9.63
2022-08-17T18:22:14.078Z,10.10
2022-08-17T18:24:45.908Z,9.70
2022-08-17T18:27:24.299Z,11.07
2022-08-17T18:29:54.511Z,11.20
2022-08-17T18:32:36.506Z,10.90
2022-08-17T18:35:28.527Z,10.35
2022-08-17T18:37:59.064Z,10.50
2022-08-17T18:40:37.946Z,9.85
2022-08-17T18:43:24.309Z,10.07
2022-08-17T18:45:54.485Z,10.82
2022-08-17T18:48:32.869Z,10.30
2022-08-17T18:51:21.323Z,10.98
2022-08-17T18:54:18.540Z,12.65
2022-08-17T18:56:52.389Z,12.85
2022-08-17T18:59:28.160Z,13.07
2022-08-17T19:02:15.331Z,13.68
2022-08-17T19:05:04.096Z,14.32
2022-08-17T19:07:34.854Z,13.05
2022-08-17T19:10:11.903Z,14.20
2022-08-17T19:12:45.161Z,13.95
2022-08-17T19:15:19.052Z,12.77
2022-08-17T19:17:53.846Z,13.57
2022-08-17T19:20:31.366Z,11.60
2022-08-17T19:23:16.790Z,11.13
2022-08-17T19:25:49.492Z,11.85
2022-08-17T19:28:24.573Z,10.52
2022-08-17T19:30:57.573Z,11.45
2022-08-17T19:33:27.248Z,11.18
2022-08-17T19:36:08.169Z,10.45
2022-08-17T19:38:49.639Z,10.70
2022-08-17T19:41:25.155Z,10.52
2022-08-17T19:44:07.046Z,10.20
2022-08-17T19:46:49.900Z,11.32
2022-08-17T19:49:33.258Z,10.38
2022-08-17T19:52:29.781Z,10.57
2022-08-17T19:55:06.172Z,11.88
2022-08-17T19:57:47.846Z,12.95
2022-08-17T20:00:18.595Z,13.00
2022-08-17T20:02:55.341Z,13.93
2022-08-17T20:05:28.079Z,12.18
2022-08-17T20:08:03.561Z,12.82
2022-08-17T20:10:40.308Z,12.10
2022-08-17T20:13:14.741Z,12.10
2022-08-17T20:15:46.248Z,15.55
2022-08-17T20:18:24.844Z,13.75
2022-08-17T20:20:59.325Z,14.73
2022-08-17T20:23:46.226Z,14.40
2022-08-17T20:26:22.282Z,14.43
2022-08-17T20:29:07.654Z,15.95
2022-08-17T20:31:48.989Z,14.20
2022-08-17T20:34:37.313Z,13.50
2022-08-17T20:37:09.780Z,14.75
2022-08-17T20:39:43.043Z,14.82
2022-08-17T20:42:30.364Z,14.85
2022-08-17T20:45:03.408Z,15.60
2022-08-17T20:47:36.953Z,15.07
2022-08-17T20:50:09.279Z,16.63
2022-08-17T20:52:52.978Z,14.38
2022-08-17T20:55:55.805Z,13.43
2022-08-17T20:59:00.676Z,14.15
2022-08-17T21:01:38.819Z,15.05
2022-08-17T21:04:09.058Z,14.88
2022-08-17T21:07:17.177Z,16.23
2022-08-17T21:09:46.272Z,16.00
2022-08-17T21:12:40.115Z,16.15
2022-08-17T21:15:23.469Z,13.80
2022-08-17T21:18:03.717Z,15.77
2022-08-17T21:20:42.636Z,17.02
2022-08-17T21:23:36.618Z,14.68
2022-08-17T21:26:22.942Z,14.55
2022-08-17T21:29:17.883Z,15.07
2022-08-17T21:32:19.281Z,15.50
2022-08-17T21:35:39.082Z,18.92
2022-08-17T21:38:14.793Z,16.20
2022-08-17T21:40:47.024Z,16.35
2022-08-17T21:43:25.387Z,17.17
2022-08-17T21:46:02.332Z,15.88
2022-08-17T21:48:32.770Z,15.30
2022-08-17T21:51:08.389Z,14.88
2022-08-17T21:53:41.226Z,14.55
2022-08-17T21:56:11.930Z,15.05
2022-08-17T21:58:48.392Z,15.38
2022-08-17T22:01:25.654Z,14.52
2022-08-17T22:04:05.022Z,13.75
2022-08-17T22:06:38.538Z,14.80
2022-08-17T22:09:14.730Z,13.27
2022-08-17T22:11:52.527Z,14.02
2022-08-17T22:14:22.444Z,13.48
2022-08-17T22:17:16.428Z,13.38
2022-08-17T22:19:48.886Z,12.38
2022-08-17T22:22:28.463Z,12.63
2022-08-17T22:24:59.310Z,12.75
2022-08-17T22:27:49.096Z,13.45
2022-08-17T22:30:36.211Z,11.48
2022-08-17T22:33:37.145Z,12.55
2022-08-17T22:36:25.080Z,11.95
2022-08-17T22:38:55.511Z,12.02
2022-08-17T22:41:51.381Z,14.32
2022-08-17T22:44:29.579Z,11.80
2022-08-17T22:47:11.485Z,13.57
2022-08-17T22:49:53.625Z,14.27
2022-08-17T22:52:32.614Z,13.18
2022-08-17T22:55:23.545Z,11.95
2022-08-17T22:58:09.635Z,11.90
2022-08-17T23:00:42.220Z,13.27
2022-08-17T23:03:17.538Z,12.80
2022-08-17T23:05:49.570Z,13.00
2022-08-17T23:08:21.192Z,12.77
2022-08-17T23:10:50.309Z,13.45
2022-08-17T23:13:21.698Z,12.70
2022-08-17T23:15:52.061Z,12.63
2022-08-17T23:18:20.471Z,11.88
2022-08-17T23:20:50.225Z,12.32
2022-08-17T23:23:23.372Z,13.88
2022-08-17T23:25:52.132Z,13.65
2022-08-17T23:28:21.444Z,15.25
2022-08-17T23:30:50.375Z,13.95
2022-08-17T23:33:22.430Z,13.80
2022-08-17T23:35:53.485Z,14.73
2022-08-17T23:38:22.106Z,14.90
2022-08-17T23:40:50.486Z,14.63
2022-08-17T23:43:25.661Z,13.07
2022-08-17T23:45:59.537Z,13.40
2022-08-17T23:48:35.844Z,13.68
2022-08-17T23:51:13.287Z,13.88
2022-08-17T23:53:47.230Z,14.02
2022-08-17T23:56:17.682Z,14.32
2022-08-17T23:58:46.600Z,15.50
